KIMS

Madison Municipal Airport

Madison, Indiana, USA
METAR KIMS 171635Z AUTO 23003KT 10SM CLR 25/21 A3004 RMK AO1
Observed Flight Rules
Aug-17 @ 16:35 UTC (16 minutes ago) Visual Flight Rules
Wind Visibility Clouds
230° at 3 knots 10 miles
  • Clear skies
Temperatures Readings
Current 25°C / 77°F
Dewpoint 21°C / 70°F
Humidity 79%
Altimeter 30.04" Hg
Pressure 1017 hPa
Elevation 250
METAR KIMS 171635Z AUTO 23003KT 10SM CLR 25/21 A3004 RMK AO1
Observed Flight Rules
Aug-17 @ 16:35 UTC
(16 minutes ago)
VFR
Wind Visibility
230° at 3 knots 10 miles
Clouds
  • Clear skies
Temperature Dewpoint
25°C / 77°F 21°C / 70°F
Humidity Altimeter Pressure
79% 30.04" Hg 1017 hPa